sensor_id;sensor_type;location;lat;lon;timestamp;P1;durP1;ratioP1;P2;durP2;ratioP2
41685;SDS011;27370;42.764;23.432;2022-09-09T00:00:38;10.93;;;8.10;;
41685;SDS011;27370;42.764;23.432;2022-09-09T00:08:53;12.13;;;8.48;;
41685;SDS011;27370;42.764;23.432;2022-09-09T00:11:15;11.25;;;8.25;;
41685;SDS011;27370;42.764;23.432;2022-09-09T00:13:54;11.95;;;8.23;;
41685;SDS011;27370;42.764;23.432;2022-09-09T00:16:25;12.30;;;8.18;;
41685;SDS011;27370;42.764;23.432;2022-09-09T00:21:43;12.18;;;8.90;;
41685;SDS011;27370;42.764;23.432;2022-09-09T00:30:22;11.95;;;8.20;;
41685;SDS011;27370;42.764;23.432;2022-09-09T00:33:03;13.23;;;8.70;;
41685;SDS011;27370;42.764;23.432;2022-09-09T00:35:37;12.98;;;9.05;;
41685;SDS011;27370;42.764;23.432;2022-09-09T00:38:25;11.70;;;8.43;;
41685;SDS011;27370;42.764;23.432;2022-09-09T00:41:05;14.68;;;9.07;;
41685;SDS011;27370;42.764;23.432;2022-09-09T00:43:37;10.73;;;7.63;;
41685;SDS011;27370;42.764;23.432;2022-09-09T00:56:40;11.73;;;8.20;;
41685;SDS011;27370;42.764;23.432;2022-09-09T00:59:32;11.70;;;8.93;;
41685;SDS011;27370;42.764;23.432;2022-09-09T01:02:02;14.80;;;9.10;;
41685;SDS011;27370;42.764;23.432;2022-09-09T01:04:38;13.20;;;9.05;;
41685;SDS011;27370;42.764;23.432;2022-09-09T01:07:07;12.25;;;8.38;;
41685;SDS011;27370;42.764;23.432;2022-09-09T01:09:56;12.93;;;8.45;;
41685;SDS011;27370;42.764;23.432;2022-09-09T01:14:56;14.48;;;8.57;;
41685;SDS011;27370;42.764;23.432;2022-09-09T01:17:44;11.75;;;8.65;;
41685;SDS011;27370;42.764;23.432;2022-09-09T01:20:33;11.40;;;8.63;;
41685;SDS011;27370;42.764;23.432;2022-09-09T01:28:18;13.00;;;9.00;;
41685;SDS011;27370;42.764;23.432;2022-09-09T01:30:49;13.35;;;9.52;;
41685;SDS011;27370;42.764;23.432;2022-09-09T01:33:18;12.88;;;8.77;;
41685;SDS011;27370;42.764;23.432;2022-09-09T01:38:41;11.65;;;9.10;;
41685;SDS011;27370;42.764;23.432;2022-09-09T01:41:07;14.00;;;9.10;;
41685;SDS011;27370;42.764;23.432;2022-09-09T01:43:41;13.43;;;8.43;;
41685;SDS011;27370;42.764;23.432;2022-09-09T01:46:07;11.73;;;8.73;;
41685;SDS011;27370;42.764;23.432;2022-09-09T01:48:34;12.00;;;9.02;;
41685;SDS011;27370;42.764;23.432;2022-09-09T01:51:07;12.40;;;9.13;;
41685;SDS011;27370;42.764;23.432;2022-09-09T01:53:33;11.75;;;9.07;;
41685;SDS011;27370;42.764;23.432;2022-09-09T01:56:11;13.07;;;9.65;;
41685;SDS011;27370;42.764;23.432;2022-09-09T01:59:07;14.10;;;9.43;;
41685;SDS011;27370;42.764;23.432;2022-09-09T02:04:45;13.20;;;9.48;;
41685;SDS011;27370;42.764;23.432;2022-09-09T02:10:08;13.57;;;10.25;;
41685;SDS011;27370;42.764;23.432;2022-09-09T02:12:40;13.95;;;9.60;;
41685;SDS011;27370;42.764;23.432;2022-09-09T02:15:14;13.15;;;9.80;;
41685;SDS011;27370;42.764;23.432;2022-09-09T02:17:49;12.02;;;9.55;;
41685;SDS011;27370;42.764;23.432;2022-09-09T02:20:17;11.65;;;8.98;;
41685;SDS011;27370;42.764;23.432;2022-09-09T02:22:49;11.68;;;9.48;;
41685;SDS011;27370;42.764;23.432;2022-09-09T02:25:18;13.77;;;10.57;;
41685;SDS011;27370;42.764;23.432;2022-09-09T02:27:48;13.05;;;10.30;;
41685;SDS011;27370;42.764;23.432;2022-09-09T02:30:16;14.68;;;9.23;;
41685;SDS011;27370;42.764;23.432;2022-09-09T02:32:50;15.15;;;10.52;;
41685;SDS011;27370;42.764;23.432;2022-09-09T02:37:46;14.02;;;9.85;;
41685;SDS011;27370;42.764;23.432;2022-09-09T02:40:12;14.35;;;10.30;;
41685;SDS011;27370;42.764;23.432;2022-09-09T02:42:44;13.80;;;10.40;;
41685;SDS011;27370;42.764;23.432;2022-09-09T02:45:12;15.15;;;11.15;;
41685;SDS011;27370;42.764;23.432;2022-09-09T02:53:18;16.85;;;12.05;;
41685;SDS011;27370;42.764;23.432;2022-09-09T02:55:49;12.77;;;10.48;;
41685;SDS011;27370;42.764;23.432;2022-09-09T02:58:25;14.57;;;10.45;;
41685;SDS011;27370;42.764;23.432;2022-09-09T03:01:02;14.13;;;8.65;;
41685;SDS011;27370;42.764;23.432;2022-09-09T03:03:29;13.20;;;9.68;;
41685;SDS011;27370;42.764;23.432;2022-09-09T03:05:55;16.42;;;9.98;;
41685;SDS011;27370;42.764;23.432;2022-09-09T03:08:22;13.45;;;9.82;;
41685;SDS011;27370;42.764;23.432;2022-09-09T03:10:47;13.20;;;10.32;;
41685;SDS011;27370;42.764;23.432;2022-09-09T03:13:14;14.50;;;10.00;;
41685;SDS011;27370;42.764;23.432;2022-09-09T03:15:40;15.73;;;11.45;;
41685;SDS011;27370;42.764;23.432;2022-09-09T03:18:09;14.13;;;10.77;;
41685;SDS011;27370;42.764;23.432;2022-09-09T03:20:35;15.45;;;10.90;;
41685;SDS011;27370;42.764;23.432;2022-09-09T03:23:00;15.05;;;10.68;;
41685;SDS011;27370;42.764;23.432;2022-09-09T03:25:27;13.15;;;10.23;;
41685;SDS011;27370;42.764;23.432;2022-09-09T03:27:54;17.58;;;11.05;;
41685;SDS011;27370;42.764;23.432;2022-09-09T03:30:21;15.02;;;10.93;;
41685;SDS011;27370;42.764;23.432;2022-09-09T03:32:48;13.23;;;10.48;;
41685;SDS011;27370;42.764;23.432;2022-09-09T03:35:13;13.75;;;11.40;;
41685;SDS011;27370;42.764;23.432;2022-09-09T03:37:40;16.00;;;12.40;;
41685;SDS011;27370;42.764;23.432;2022-09-09T03:40:07;22.48;;;15.23;;
41685;SDS011;27370;42.764;23.432;2022-09-09T03:42:35;25.08;;;14.73;;
41685;SDS011;27370;42.764;23.432;2022-09-09T03:45:02;25.05;;;15.00;;
41685;SDS011;27370;42.764;23.432;2022-09-09T03:47:37;18.38;;;13.43;;
41685;SDS011;27370;42.764;23.432;2022-09-09T03:50:05;18.73;;;12.77;;
41685;SDS011;27370;42.764;23.432;2022-09-09T03:52:40;17.52;;;12.98;;
41685;SDS011;27370;42.764;23.432;2022-09-09T03:55:11;16.55;;;13.00;;
41685;SDS011;27370;42.764;23.432;2022-09-09T03:57:37;18.40;;;13.75;;
41685;SDS011;27370;42.764;23.432;2022-09-09T04:00:07;16.90;;;13.70;;
41685;SDS011;27370;42.764;23.432;2022-09-09T04:02:41;18.02;;;12.98;;
41685;SDS011;27370;42.764;23.432;2022-09-09T04:05:09;17.98;;;13.48;;
41685;SDS011;27370;42.764;23.432;2022-09-09T04:07:36;18.02;;;13.00;;
41685;SDS011;27370;42.764;23.432;2022-09-09T04:10:02;17.13;;;13.73;;
41685;SDS011;27370;42.764;23.432;2022-09-09T04:12:28;16.10;;;12.38;;
41685;SDS011;27370;42.764;23.432;2022-09-09T04:14:54;19.45;;;13.13;;
41685;SDS011;27370;42.764;23.432;2022-09-09T04:17:20;18.85;;;12.88;;
41685;SDS011;27370;42.764;23.432;2022-09-09T04:19:45;18.63;;;13.27;;
41685;SDS011;27370;42.764;23.432;2022-09-09T04:22:11;18.38;;;13.43;;
41685;SDS011;27370;42.764;23.432;2022-09-09T04:24:37;17.15;;;12.98;;
41685;SDS011;27370;42.764;23.432;2022-09-09T04:27:03;21.38;;;13.63;;
41685;SDS011;27370;42.764;23.432;2022-09-09T04:29:30;24.83;;;15.35;;
41685;SDS011;27370;42.764;23.432;2022-09-09T04:31:56;26.20;;;17.88;;
41685;SDS011;27370;42.764;23.432;2022-09-09T04:34:21;32.95;;;21.30;;
41685;SDS011;27370;42.764;23.432;2022-09-09T04:36:47;28.00;;;18.95;;
41685;SDS011;27370;42.764;23.432;2022-09-09T04:39:13;33.08;;;19.90;;
41685;SDS011;27370;42.764;23.432;2022-09-09T04:41:38;18.95;;;14.77;;
41685;SDS011;27370;42.764;23.432;2022-09-09T04:44:04;18.70;;;13.43;;
41685;SDS011;27370;42.764;23.432;2022-09-09T04:46:31;18.35;;;12.65;;
41685;SDS011;27370;42.764;23.432;2022-09-09T04:48:58;17.25;;;13.18;;
41685;SDS011;27370;42.764;23.432;2022-09-09T04:51:27;19.15;;;13.55;;
41685;SDS011;27370;42.764;23.432;2022-09-09T04:53:53;20.00;;;13.27;;
41685;SDS011;27370;42.764;23.432;2022-09-09T04:56:19;21.13;;;12.95;;
41685;SDS011;27370;42.764;23.432;2022-09-09T04:58:49;17.40;;;12.40;;
41685;SDS011;27370;42.764;23.432;2022-09-09T05:01:16;15.57;;;11.80;;
41685;SDS011;27370;42.764;23.432;2022-09-09T05:03:48;18.40;;;11.40;;
41685;SDS011;27370;42.764;23.432;2022-09-09T05:06:18;18.98;;;11.65;;
41685;SDS011;27370;42.764;23.432;2022-09-09T05:08:47;14.88;;;11.57;;
41685;SDS011;27370;42.764;23.432;2022-09-09T05:11:23;16.15;;;10.95;;
41685;SDS011;27370;42.764;23.432;2022-09-09T05:13:53;16.30;;;10.40;;
41685;SDS011;27370;42.764;23.432;2022-09-09T05:16:20;17.10;;;11.20;;
41685;SDS011;27370;42.764;23.432;2022-09-09T05:18:46;17.75;;;11.68;;
41685;SDS011;27370;42.764;23.432;2022-09-09T05:21:12;19.88;;;12.10;;
41685;SDS011;27370;42.764;23.432;2022-09-09T05:23:39;23.88;;;12.45;;
41685;SDS011;27370;42.764;23.432;2022-09-09T05:26:06;16.52;;;11.25;;
41685;SDS011;27370;42.764;23.432;2022-09-09T05:28:34;17.80;;;10.60;;
41685;SDS011;27370;42.764;23.432;2022-09-09T05:31:02;18.80;;;10.80;;
41685;SDS011;27370;42.764;23.432;2022-09-09T05:33:32;18.40;;;10.48;;
41685;SDS011;27370;42.764;23.432;2022-09-09T05:35:59;14.27;;;9.00;;
41685;SDS011;27370;42.764;23.432;2022-09-09T05:38:28;11.57;;;7.82;;
41685;SDS011;27370;42.764;23.432;2022-09-09T05:40:54;14.75;;;7.50;;
41685;SDS011;27370;42.764;23.432;2022-09-09T05:43:21;11.13;;;7.10;;
41685;SDS011;27370;42.764;23.432;2022-09-09T05:45:48;11.23;;;6.18;;
41685;SDS011;27370;42.764;23.432;2022-09-09T05:48:30;11.52;;;6.60;;
41685;SDS011;27370;42.764;23.432;2022-09-09T05:50:57;12.05;;;7.07;;
41685;SDS011;27370;42.764;23.432;2022-09-09T05:53:23;10.57;;;6.97;;
41685;SDS011;27370;42.764;23.432;2022-09-09T05:55:49;9.93;;;6.13;;
41685;SDS011;27370;42.764;23.432;2022-09-09T05:58:15;10.20;;;6.30;;
41685;SDS011;27370;42.764;23.432;2022-09-09T06:00:42;11.82;;;6.57;;
41685;SDS011;27370;42.764;23.432;2022-09-09T06:03:12;10.38;;;6.13;;
41685;SDS011;27370;42.764;23.432;2022-09-09T06:05:38;10.40;;;5.72;;
41685;SDS011;27370;42.764;23.432;2022-09-09T06:08:03;13.35;;;6.00;;
41685;SDS011;27370;42.764;23.432;2022-09-09T06:10:30;11.13;;;6.03;;
41685;SDS011;27370;42.764;23.432;2022-09-09T06:12:55;13.18;;;6.13;;
41685;SDS011;27370;42.764;23.432;2022-09-09T06:15:21;13.27;;;6.10;;
41685;SDS011;27370;42.764;23.432;2022-09-09T06:17:46;17.95;;;5.55;;
41685;SDS011;27370;42.764;23.432;2022-09-09T06:20:12;17.52;;;5.53;;
41685;SDS011;27370;42.764;23.432;2022-09-09T06:22:39;12.95;;;5.13;;
41685;SDS011;27370;42.764;23.432;2022-09-09T06:25:06;12.82;;;5.72;;
41685;SDS011;27370;42.764;23.432;2022-09-09T06:27:33;13.73;;;5.22;;
41685;SDS011;27370;42.764;23.432;2022-09-09T06:29:59;11.68;;;5.57;;
41685;SDS011;27370;42.764;23.432;2022-09-09T06:32:24;13.90;;;5.28;;
41685;SDS011;27370;42.764;23.432;2022-09-09T06:34:52;21.98;;;5.60;;
41685;SDS011;27370;42.764;23.432;2022-09-09T06:37:17;14.43;;;5.40;;
41685;SDS011;27370;42.764;23.432;2022-09-09T06:39:47;13.18;;;5.07;;
41685;SDS011;27370;42.764;23.432;2022-09-09T06:42:13;10.43;;;4.93;;
41685;SDS011;27370;42.764;23.432;2022-09-09T06:44:56;11.57;;;5.07;;
41685;SDS011;27370;42.764;23.432;2022-09-09T06:47:35;21.30;;;5.85;;
41685;SDS011;27370;42.764;23.432;2022-09-09T06:50:01;17.67;;;4.80;;
41685;SDS011;27370;42.764;23.432;2022-09-09T06:52:28;13.05;;;4.80;;
41685;SDS011;27370;42.764;23.432;2022-09-09T06:54:55;10.10;;;4.95;;
41685;SDS011;27370;42.764;23.432;2022-09-09T06:57:21;10.32;;;4.95;;
41685;SDS011;27370;42.764;23.432;2022-09-09T06:59:47;10.80;;;4.53;;
41685;SDS011;27370;42.764;23.432;2022-09-09T07:02:13;10.98;;;4.90;;
41685;SDS011;27370;42.764;23.432;2022-09-09T07:04:39;9.65;;;4.85;;
41685;SDS011;27370;42.764;23.432;2022-09-09T07:07:05;10.65;;;5.03;;
41685;SDS011;27370;42.764;23.432;2022-09-09T07:09:32;11.55;;;5.13;;
41685;SDS011;27370;42.764;23.432;2022-09-09T07:11:57;7.28;;;4.72;;
41685;SDS011;27370;42.764;23.432;2022-09-09T07:14:25;11.15;;;4.68;;
41685;SDS011;27370;42.764;23.432;2022-09-09T07:16:54;10.93;;;5.13;;
41685;SDS011;27370;42.764;23.432;2022-09-09T07:19:20;10.80;;;4.63;;
41685;SDS011;27370;42.764;23.432;2022-09-09T07:21:49;8.20;;;4.35;;
41685;SDS011;27370;42.764;23.432;2022-09-09T07:24:17;10.10;;;4.85;;
41685;SDS011;27370;42.764;23.432;2022-09-09T07:26:43;10.02;;;5.00;;
41685;SDS011;27370;42.764;23.432;2022-09-09T07:29:10;11.60;;;4.72;;
41685;SDS011;27370;42.764;23.432;2022-09-09T07:31:39;11.57;;;4.95;;
41685;SDS011;27370;42.764;23.432;2022-09-09T07:34:09;9.27;;;4.38;;
41685;SDS011;27370;42.764;23.432;2022-09-09T07:36:38;12.63;;;4.35;;
41685;SDS011;27370;42.764;23.432;2022-09-09T07:39:07;10.25;;;4.65;;
41685;SDS011;27370;42.764;23.432;2022-09-09T07:41:40;10.90;;;4.78;;
41685;SDS011;27370;42.764;23.432;2022-09-09T07:44:08;7.78;;;4.57;;
41685;SDS011;27370;42.764;23.432;2022-09-09T07:46:36;9.18;;;4.28;;
41685;SDS011;27370;42.764;23.432;2022-09-09T07:49:05;10.60;;;4.65;;
41685;SDS011;27370;42.764;23.432;2022-09-09T07:51:34;8.82;;;3.95;;
41685;SDS011;27370;42.764;23.432;2022-09-09T07:54:02;8.25;;;4.05;;
41685;SDS011;27370;42.764;23.432;2022-09-09T07:56:31;10.18;;;4.30;;
41685;SDS011;27370;42.764;23.432;2022-09-09T07:58:57;8.98;;;4.50;;
41685;SDS011;27370;42.764;23.432;2022-09-09T08:01:25;10.73;;;4.45;;
41685;SDS011;27370;42.764;23.432;2022-09-09T08:03:57;8.52;;;3.78;;
41685;SDS011;27370;42.764;23.432;2022-09-09T08:06:32;9.98;;;4.03;;
41685;SDS011;27370;42.764;23.432;2022-09-09T08:09:01;8.52;;;3.78;;
41685;SDS011;27370;42.764;23.432;2022-09-09T08:11:28;5.63;;;3.45;;
41685;SDS011;27370;42.764;23.432;2022-09-09T08:13:54;9.35;;;3.70;;
41685;SDS011;27370;42.764;23.432;2022-09-09T08:16:21;8.45;;;4.15;;
41685;SDS011;27370;42.764;23.432;2022-09-09T08:18:50;8.23;;;3.80;;
41685;SDS011;27370;42.764;23.432;2022-09-09T08:21:18;7.55;;;3.45;;
41685;SDS011;27370;42.764;23.432;2022-09-09T08:23:47;8.65;;;3.53;;
41685;SDS011;27370;42.764;23.432;2022-09-09T08:28:48;10.50;;;4.13;;
41685;SDS011;27370;42.764;23.432;2022-09-09T08:33:45;9.57;;;3.83;;
41685;SDS011;27370;42.764;23.432;2022-09-09T08:36:12;8.60;;;3.88;;
41685;SDS011;27370;42.764;23.432;2022-09-09T08:38:40;10.63;;;3.78;;
41685;SDS011;27370;42.764;23.432;2022-09-09T08:52:47;9.73;;;4.03;;
41685;SDS011;27370;42.764;23.432;2022-09-09T08:57:52;16.27;;;7.63;;
41685;SDS011;27370;42.764;23.432;2022-09-09T09:00:23;11.70;;;4.13;;
41685;SDS011;27370;42.764;23.432;2022-09-09T09:05:47;8.77;;;4.18;;
41685;SDS011;27370;42.764;23.432;2022-09-09T09:08:27;12.25;;;4.60;;
41685;SDS011;27370;42.764;23.432;2022-09-09T09:11:03;10.70;;;4.50;;
41685;SDS011;27370;42.764;23.432;2022-09-09T09:13:39;12.50;;;4.67;;
41685;SDS011;27370;42.764;23.432;2022-09-09T09:16:19;10.10;;;4.07;;
41685;SDS011;27370;42.764;23.432;2022-09-09T09:18:54;10.48;;;3.97;;
41685;SDS011;27370;42.764;23.432;2022-09-09T09:21:27;9.43;;;4.35;;
41685;SDS011;27370;42.764;23.432;2022-09-09T09:23:58;8.20;;;3.92;;
41685;SDS011;27370;42.764;23.432;2022-09-09T09:26:32;8.48;;;3.78;;
41685;SDS011;27370;42.764;23.432;2022-09-09T09:29:01;9.00;;;3.60;;
41685;SDS011;27370;42.764;23.432;2022-09-09T09:31:35;9.27;;;4.47;;
41685;SDS011;27370;42.764;23.432;2022-09-09T09:34:00;9.60;;;3.90;;
41685;SDS011;27370;42.764;23.432;2022-09-09T09:36:44;9.07;;;3.92;;
41685;SDS011;27370;42.764;23.432;2022-09-09T09:39:29;8.95;;;3.70;;
41685;SDS011;27370;42.764;23.432;2022-09-09T09:42:07;10.15;;;4.18;;
41685;SDS011;27370;42.764;23.432;2022-09-09T09:44:43;9.48;;;4.15;;
41685;SDS011;27370;42.764;23.432;2022-09-09T09:47:16;8.25;;;3.88;;
41685;SDS011;27370;42.764;23.432;2022-09-09T09:49:51;9.40;;;4.03;;
41685;SDS011;27370;42.764;23.432;2022-09-09T09:52:19;8.50;;;4.05;;
41685;SDS011;27370;42.764;23.432;2022-09-09T09:54:49;7.13;;;4.00;;
41685;SDS011;27370;42.764;23.432;2022-09-09T09:57:16;10.00;;;4.30;;
41685;SDS011;27370;42.764;23.432;2022-09-09T09:59:45;9.93;;;4.43;;
41685;SDS011;27370;42.764;23.432;2022-09-09T10:02:22;11.85;;;3.78;;
41685;SDS011;27370;42.764;23.432;2022-09-09T10:08:18;11.93;;;3.80;;
41685;SDS011;27370;42.764;23.432;2022-09-09T10:19:05;9.30;;;3.88;;
41685;SDS011;27370;42.764;23.432;2022-09-09T10:27:00;6.68;;;3.60;;
41685;SDS011;27370;42.764;23.432;2022-09-09T10:38:02;9.73;;;4.28;;
41685;SDS011;27370;42.764;23.432;2022-09-09T10:43:12;10.25;;;4.57;;
41685;SDS011;27370;42.764;23.432;2022-09-09T10:46:03;10.20;;;5.00;;
41685;SDS011;27370;42.764;23.432;2022-09-09T10:57:21;23.38;;;5.75;;
41685;SDS011;27370;42.764;23.432;2022-09-09T11:00:06;23.40;;;5.97;;
41685;SDS011;27370;42.764;23.432;2022-09-09T11:02:40;12.43;;;5.00;;
41685;SDS011;27370;42.764;23.432;2022-09-09T11:05:14;10.30;;;5.25;;
41685;SDS011;27370;42.764;23.432;2022-09-09T11:08:05;10.18;;;5.05;;
41685;SDS011;27370;42.764;23.432;2022-09-09T11:13:18;18.10;;;5.22;;
41685;SDS011;27370;42.764;23.432;2022-09-09T11:15:55;11.60;;;4.80;;
41685;SDS011;27370;42.764;23.432;2022-09-09T11:18:28;16.45;;;5.50;;
41685;SDS011;27370;42.764;23.432;2022-09-09T11:20:58;10.60;;;4.70;;
41685;SDS011;27370;42.764;23.432;2022-09-09T11:23:28;10.15;;;5.47;;
41685;SDS011;27370;42.764;23.432;2022-09-09T11:26:04;10.55;;;4.72;;
41685;SDS011;27370;42.764;23.432;2022-09-09T11:29:36;11.38;;;5.38;;
41685;SDS011;27370;42.764;23.432;2022-09-09T11:31:43;21.20;;;5.85;;
41685;SDS011;27370;42.764;23.432;2022-09-09T11:34:25;10.80;;;5.25;;
41685;SDS011;27370;42.764;23.432;2022-09-09T11:40:07;11.13;;;4.85;;
41685;SDS011;27370;42.764;23.432;2022-09-09T11:42:39;12.98;;;5.25;;
41685;SDS011;27370;42.764;23.432;2022-09-09T11:45:23;9.90;;;5.20;;
41685;SDS011;27370;42.764;23.432;2022-09-09T11:47:57;12.52;;;5.07;;
41685;SDS011;27370;42.764;23.432;2022-09-09T11:50:27;13.30;;;5.22;;
41685;SDS011;27370;42.764;23.432;2022-09-09T11:55:39;8.95;;;5.38;;
41685;SDS011;27370;42.764;23.432;2022-09-09T12:03:32;11.65;;;6.00;;
41685;SDS011;27370;42.764;23.432;2022-09-09T12:05:58;10.10;;;5.50;;
41685;SDS011;27370;42.764;23.432;2022-09-09T12:08:26;11.55;;;6.18;;
41685;SDS011;27370;42.764;23.432;2022-09-09T12:10:55;13.20;;;5.28;;
41685;SDS011;27370;42.764;23.432;2022-09-09T12:13:23;12.00;;;5.70;;
41685;SDS011;27370;42.764;23.432;2022-09-09T12:15:57;12.13;;;5.57;;
41685;SDS011;27370;42.764;23.432;2022-09-09T12:18:25;10.40;;;5.60;;
41685;SDS011;27370;42.764;23.432;2022-09-09T12:23:43;12.25;;;5.50;;
41685;SDS011;27370;42.764;23.432;2022-09-09T12:31:49;12.82;;;5.60;;
41685;SDS011;27370;42.764;23.432;2022-09-09T12:36:55;10.65;;;5.93;;
41685;SDS011;27370;42.764;23.432;2022-09-09T12:39:29;12.60;;;5.72;;
41685;SDS011;27370;42.764;23.432;2022-09-09T12:42:03;18.50;;;6.38;;
41685;SDS011;27370;42.764;23.432;2022-09-09T12:44:29;14.50;;;6.38;;
41685;SDS011;27370;42.764;23.432;2022-09-09T12:46:56;13.48;;;6.03;;
41685;SDS011;27370;42.764;23.432;2022-09-09T12:49:35;13.38;;;5.93;;
41685;SDS011;27370;42.764;23.432;2022-09-09T12:52:04;13.53;;;5.93;;
41685;SDS011;27370;42.764;23.432;2022-09-09T12:54:35;12.88;;;6.45;;
41685;SDS011;27370;42.764;23.432;2022-09-09T12:57:02;11.02;;;6.38;;
41685;SDS011;27370;42.764;23.432;2022-09-09T12:59:36;12.60;;;6.10;;
41685;SDS011;27370;42.764;23.432;2022-09-09T13:02:17;11.30;;;5.97;;
41685;SDS011;27370;42.764;23.432;2022-09-09T13:04:45;14.57;;;6.63;;
41685;SDS011;27370;42.764;23.432;2022-09-09T13:07:12;13.80;;;6.80;;
41685;SDS011;27370;42.764;23.432;2022-09-09T13:09:41;13.90;;;6.28;;
41685;SDS011;27370;42.764;23.432;2022-09-09T13:12:07;20.92;;;7.28;;
41685;SDS011;27370;42.764;23.432;2022-09-09T13:14:48;14.95;;;6.97;;
41685;SDS011;27370;42.764;23.432;2022-09-09T13:17:19;13.95;;;6.93;;
41685;SDS011;27370;42.764;23.432;2022-09-09T13:19:51;14.05;;;6.30;;
41685;SDS011;27370;42.764;23.432;2022-09-09T13:22:20;16.70;;;6.85;;
41685;SDS011;27370;42.764;23.432;2022-09-09T13:24:58;17.42;;;6.82;;
41685;SDS011;27370;42.764;23.432;2022-09-09T13:27:34;16.08;;;6.88;;
41685;SDS011;27370;42.764;23.432;2022-09-09T13:30:23;19.58;;;7.00;;
41685;SDS011;27370;42.764;23.432;2022-09-09T13:38:24;12.35;;;6.05;;
41685;SDS011;27370;42.764;23.432;2022-09-09T13:41:03;13.73;;;6.63;;
41685;SDS011;27370;42.764;23.432;2022-09-09T13:43:30;13.00;;;6.03;;
41685;SDS011;27370;42.764;23.432;2022-09-09T13:46:00;12.27;;;6.25;;
41685;SDS011;27370;42.764;23.432;2022-09-09T13:48:28;12.43;;;5.37;;
41685;SDS011;27370;42.764;23.432;2022-09-09T13:50:58;13.13;;;6.10;;
41685;SDS011;27370;42.764;23.432;2022-09-09T13:53:26;10.68;;;5.90;;
41685;SDS011;27370;42.764;23.432;2022-09-09T13:55:52;15.02;;;6.80;;
41685;SDS011;27370;42.764;23.432;2022-09-09T13:58:18;10.50;;;6.20;;
41685;SDS011;27370;42.764;23.432;2022-09-09T14:00:44;12.55;;;6.25;;
41685;SDS011;27370;42.764;23.432;2022-09-09T14:03:10;12.88;;;6.43;;
41685;SDS011;27370;42.764;23.432;2022-09-09T14:05:36;13.15;;;5.80;;
41685;SDS011;27370;42.764;23.432;2022-09-09T14:08:03;16.20;;;6.35;;
41685;SDS011;27370;42.764;23.432;2022-09-09T14:10:31;14.10;;;6.55;;
41685;SDS011;27370;42.764;23.432;2022-09-09T14:12:56;11.98;;;6.13;;
41685;SDS011;27370;42.764;23.432;2022-09-09T14:15:22;12.00;;;6.18;;
41685;SDS011;27370;42.764;23.432;2022-09-09T14:17:47;11.57;;;6.05;;
41685;SDS011;27370;42.764;23.432;2022-09-09T14:20:14;11.52;;;6.18;;
41685;SDS011;27370;42.764;23.432;2022-09-09T14:22:40;12.68;;;5.38;;
41685;SDS011;27370;42.764;23.432;2022-09-09T14:25:06;13.40;;;5.57;;
41685;SDS011;27370;42.764;23.432;2022-09-09T14:27:32;11.43;;;5.72;;
41685;SDS011;27370;42.764;23.432;2022-09-09T14:29:59;13.98;;;5.10;;
41685;SDS011;27370;42.764;23.432;2022-09-09T14:32:26;10.75;;;4.30;;
41685;SDS011;27370;42.764;23.432;2022-09-09T14:34:51;11.88;;;4.90;;
41685;SDS011;27370;42.764;23.432;2022-09-09T14:37:17;14.15;;;4.93;;
41685;SDS011;27370;42.764;23.432;2022-09-09T14:39:45;11.63;;;5.07;;
41685;SDS011;27370;42.764;23.432;2022-09-09T14:42:12;11.07;;;4.70;;
41685;SDS011;27370;42.764;23.432;2022-09-09T14:44:38;11.02;;;4.88;;
41685;SDS011;27370;42.764;23.432;2022-09-09T14:47:07;12.07;;;4.53;;
41685;SDS011;27370;42.764;23.432;2022-09-09T14:49:33;13.93;;;5.00;;
41685;SDS011;27370;42.764;23.432;2022-09-09T14:51:59;10.77;;;4.85;;
41685;SDS011;27370;42.764;23.432;2022-09-09T14:54:25;10.48;;;4.60;;
41685;SDS011;27370;42.764;23.432;2022-09-09T14:56:51;9.63;;;4.32;;
41685;SDS011;27370;42.764;23.432;2022-09-09T14:59:17;10.75;;;4.35;;
41685;SDS011;27370;42.764;23.432;2022-09-09T15:01:42;11.48;;;4.18;;
41685;SDS011;27370;42.764;23.432;2022-09-09T15:04:10;11.82;;;4.50;;
41685;SDS011;27370;42.764;23.432;2022-09-09T15:06:37;10.23;;;4.60;;
41685;SDS011;27370;42.764;23.432;2022-09-09T15:09:04;10.32;;;4.00;;
41685;SDS011;27370;42.764;23.432;2022-09-09T15:11:32;12.98;;;4.32;;
41685;SDS011;27370;42.764;23.432;2022-09-09T15:14:02;9.50;;;4.20;;
41685;SDS011;27370;42.764;23.432;2022-09-09T15:16:29;13.13;;;4.53;;
41685;SDS011;27370;42.764;23.432;2022-09-09T15:18:55;10.52;;;4.40;;
41685;SDS011;27370;42.764;23.432;2022-09-09T15:21:23;10.65;;;4.28;;
41685;SDS011;27370;42.764;23.432;2022-09-09T15:23:50;12.20;;;4.57;;
41685;SDS011;27370;42.764;23.432;2022-09-09T15:26:17;11.15;;;4.88;;
41685;SDS011;27370;42.764;23.432;2022-09-09T15:28:44;8.77;;;4.90;;
41685;SDS011;27370;42.764;23.432;2022-09-09T15:31:11;11.35;;;4.88;;
41685;SDS011;27370;42.764;23.432;2022-09-09T15:33:48;9.40;;;4.68;;
41685;SDS011;27370;42.764;23.432;2022-09-09T15:38:51;11.50;;;4.80;;
41685;SDS011;27370;42.764;23.432;2022-09-09T15:41:19;9.05;;;5.10;;
41685;SDS011;27370;42.764;23.432;2022-09-09T15:43:46;12.82;;;5.00;;
41685;SDS011;27370;42.764;23.432;2022-09-09T15:48:57;11.73;;;5.00;;
41685;SDS011;27370;42.764;23.432;2022-09-09T15:51:28;9.13;;;4.72;;
41685;SDS011;27370;42.764;23.432;2022-09-09T15:53:54;9.80;;;4.90;;
41685;SDS011;27370;42.764;23.432;2022-09-09T15:56:21;10.35;;;5.22;;
41685;SDS011;27370;42.764;23.432;2022-09-09T15:58:47;10.02;;;5.13;;
41685;SDS011;27370;42.764;23.432;2022-09-09T16:01:12;10.75;;;4.88;;
41685;SDS011;27370;42.764;23.432;2022-09-09T16:03:39;11.30;;;5.13;;
41685;SDS011;27370;42.764;23.432;2022-09-09T16:06:12;12.75;;;5.00;;
41685;SDS011;27370;42.764;23.432;2022-09-09T16:08:40;10.18;;;4.70;;
41685;SDS011;27370;42.764;23.432;2022-09-09T16:11:07;10.23;;;5.30;;
41685;SDS011;27370;42.764;23.432;2022-09-09T16:13:41;11.43;;;4.72;;
41685;SDS011;27370;42.764;23.432;2022-09-09T16:16:08;31.45;;;12.68;;
41685;SDS011;27370;42.764;23.432;2022-09-09T16:18:36;13.88;;;6.22;;
41685;SDS011;27370;42.764;23.432;2022-09-09T16:21:04;14.15;;;5.15;;
41685;SDS011;27370;42.764;23.432;2022-09-09T16:23:31;11.35;;;5.28;;
41685;SDS011;27370;42.764;23.432;2022-09-09T16:25:57;13.10;;;5.50;;
41685;SDS011;27370;42.764;23.432;2022-09-09T16:28:23;12.45;;;5.85;;
41685;SDS011;27370;42.764;23.432;2022-09-09T16:30:49;17.55;;;5.85;;
41685;SDS011;27370;42.764;23.432;2022-09-09T16:33:15;13.85;;;5.50;;
41685;SDS011;27370;42.764;23.432;2022-09-09T16:35:41;11.10;;;5.80;;
41685;SDS011;27370;42.764;23.432;2022-09-09T16:38:07;11.80;;;5.35;;
41685;SDS011;27370;42.764;23.432;2022-09-09T16:40:36;11.55;;;5.40;;
41685;SDS011;27370;42.764;23.432;2022-09-09T16:43:06;10.88;;;5.38;;
41685;SDS011;27370;42.764;23.432;2022-09-09T16:45:32;12.80;;;5.60;;
41685;SDS011;27370;42.764;23.432;2022-09-09T16:48:01;14.93;;;5.22;;
41685;SDS011;27370;42.764;23.432;2022-09-09T16:50:26;14.52;;;6.03;;
41685;SDS011;27370;42.764;23.432;2022-09-09T16:52:52;14.35;;;5.43;;
41685;SDS011;27370;42.764;23.432;2022-09-09T16:55:18;13.18;;;5.60;;
41685;SDS011;27370;42.764;23.432;2022-09-09T16:57:46;11.02;;;5.65;;
41685;SDS011;27370;42.764;23.432;2022-09-09T17:00:14;13.13;;;5.53;;